createdAt,value
2019-02-23T00:03:11.090Z,6.60
2019-02-23T00:07:14.089Z,6.70
2019-02-23T00:11:17.091Z,6.50
2019-02-23T00:15:20.099Z,6.40
2019-02-23T00:19:25.165Z,6.50
2019-02-23T00:23:28.154Z,6.60
2019-02-23T00:27:31.186Z,6.60
2019-02-23T00:31:34.272Z,6.50
2019-02-23T00:35:37.267Z,6.40
2019-02-23T00:39:40.272Z,6.40
2019-02-23T00:43:43.288Z,6.50
2019-02-23T00:47:47.394Z,6.50
2019-02-23T00:51:51.876Z,6.60
2019-02-23T00:55:55.064Z,6.70
2019-02-23T00:59:58.099Z,6.70
2019-02-23T01:04:01.108Z,6.90
2019-02-23T01:08:04.124Z,7.00
2019-02-23T01:12:07.223Z,7.10
2019-02-23T01:16:10.258Z,7.00
2019-02-23T01:20:13.338Z,7.10
2019-02-23T01:24:16.344Z,7.30
2019-02-23T01:28:19.353Z,7.20
2019-02-23T01:32:22.388Z,7.10
2019-02-23T01:36:25.393Z,7.10
2019-02-23T01:40:28.421Z,7.00
2019-02-23T01:44:31.447Z,6.90
2019-02-23T01:48:35.475Z,6.60
2019-02-23T01:52:38.483Z,6.60
2019-02-23T01:56:41.491Z,6.50
2019-02-23T02:00:44.716Z,6.40
2019-02-23T02:04:47.768Z,6.40
2019-02-23T02:08:50.777Z,6.40
2019-02-23T02:12:53.782Z,6.40
2019-02-23T02:16:56.823Z,6.50
2019-02-23T02:20:59.827Z,6.30
2019-02-23T02:25:04.164Z,6.00
2019-02-23T02:29:07.174Z,5.90
2019-02-23T02:33:10.173Z,5.80
2019-02-23T02:37:13.284Z,5.60
2019-02-23T02:41:16.366Z,5.50
2019-02-23T02:45:19.421Z,5.50
2019-02-23T02:49:23.805Z,5.50
2019-02-23T02:53:26.813Z,5.50
2019-02-23T02:57:29.833Z,5.40
2019-02-23T03:01:32.855Z,5.50
2019-02-23T03:05:35.869Z,5.60
2019-02-23T03:09:38.868Z,5.60
2019-02-23T03:13:41.862Z,5.60
2019-02-23T03:17:44.874Z,5.40
2019-02-23T03:21:47.888Z,5.30
2019-02-23T03:25:50.877Z,5.30
2019-02-23T03:29:53.878Z,5.50
2019-02-23T03:33:56.879Z,5.50
2019-02-23T03:37:59.897Z,5.50
2019-02-23T03:42:02.879Z,5.30
2019-02-23T03:46:05.881Z,5.10
2019-02-23T03:50:09.155Z,5.20
2019-02-23T03:54:12.216Z,5.10
2019-02-23T03:58:15.220Z,4.90
2019-02-23T04:02:18.402Z,4.80
2019-02-23T04:06:21.404Z,4.80
2019-02-23T04:10:24.417Z,4.80
2019-02-23T04:14:27.424Z,4.70
2019-02-23T04:18:30.432Z,4.70
2019-02-23T04:22:33.449Z,4.30
2019-02-23T04:26:36.469Z,4.20
2019-02-23T04:30:39.463Z,4.40
2019-02-23T04:34:42.471Z,4.50
2019-02-23T04:38:45.503Z,4.50
2019-02-23T04:42:48.499Z,4.40
2019-02-23T04:46:51.517Z,4.50
2019-02-23T04:50:55.432Z,4.50
2019-02-23T04:54:58.450Z,4.30
2019-02-23T04:59:01.463Z,4.10
2019-02-23T05:03:04.479Z,4.20
2019-02-23T05:07:07.835Z,4.20
2019-02-23T05:11:10.831Z,4.00
2019-02-23T05:15:13.880Z,4.00
2019-02-23T05:19:17.005Z,4.20
2019-02-23T05:23:20.030Z,4.20
2019-02-23T05:27:23.024Z,4.40
2019-02-23T05:31:26.028Z,4.20
2019-02-23T05:35:29.040Z,4.20
2019-02-23T05:39:32.037Z,4.40
2019-02-23T05:43:35.057Z,4.50
2019-02-23T05:47:38.059Z,4.30
2019-02-23T05:51:42.173Z,4.10
2019-02-23T05:55:45.176Z,3.90
2019-02-23T05:59:48.179Z,3.90
2019-02-23T06:03:51.191Z,4.00
2019-02-23T06:07:54.215Z,4.00
2019-02-23T06:11:57.255Z,4.10
2019-02-23T06:16:00.277Z,4.30
2019-02-23T06:20:05.187Z,4.30
2019-02-23T06:24:08.217Z,4.00
2019-02-23T06:28:11.229Z,4.30
2019-02-23T06:32:14.241Z,4.20
2019-02-23T06:36:17.276Z,4.20
2019-02-23T06:40:20.292Z,4.10
2019-02-23T06:44:23.368Z,4.10
2019-02-23T06:48:26.368Z,4.10
2019-02-23T06:52:29.871Z,3.80
2019-02-23T06:56:32.876Z,3.70
2019-02-23T07:00:35.897Z,3.80
2019-02-23T07:04:38.924Z,3.90
2019-02-23T07:08:42.140Z,3.90
2019-02-23T07:12:45.159Z,3.70
2019-02-23T07:16:48.176Z,3.70
2019-02-23T07:20:51.186Z,3.60
2019-02-23T07:24:54.315Z,3.60
2019-02-23T07:28:57.317Z,3.90
2019-02-23T07:33:00.337Z,4.10
2019-02-23T07:37:03.331Z,4.50
2019-02-23T07:41:06.471Z,4.60
2019-02-23T07:45:09.584Z,4.90
2019-02-23T07:49:12.600Z,5.20
2019-02-23T07:53:16.492Z,5.50
2019-02-23T07:57:19.496Z,6.20
2019-02-23T08:01:22.506Z,6.20
2019-02-23T08:05:25.512Z,6.20
2019-02-23T08:09:28.514Z,6.40
2019-02-23T08:13:31.519Z,6.90
2019-02-23T08:17:34.544Z,7.20
2019-02-23T08:21:37.611Z,7.00
2019-02-23T08:25:40.634Z,6.50
2019-02-23T08:29:43.689Z,6.70
2019-02-23T08:33:46.701Z,6.80
2019-02-23T08:37:51.135Z,7.00
2019-02-23T08:41:54.260Z,7.70
2019-02-23T08:45:57.455Z,7.50
2019-02-23T08:50:00.643Z,7.30
2019-02-23T08:54:04.442Z,6.90
2019-02-23T08:58:07.620Z,7.40
2019-02-23T09:02:10.677Z,7.50
2019-02-23T09:06:13.671Z,8.20
2019-02-23T09:10:16.816Z,8.30
2019-02-23T09:14:19.835Z,8.60
2019-02-23T09:18:23.907Z,8.70
2019-02-23T09:22:26.918Z,8.40
2019-02-23T09:26:29.927Z,8.50
2019-02-23T09:30:32.939Z,8.40
2019-02-23T09:34:35.956Z,8.50
2019-02-23T09:38:38.997Z,8.40
2019-02-23T09:42:43.114Z,8.90
2019-02-23T09:46:46.132Z,8.40
2019-02-23T09:50:49.144Z,9.00
2019-02-23T09:54:53.595Z,9.30
2019-02-23T09:58:56.595Z,8.90
2019-02-23T10:02:59.632Z,8.70
2019-02-23T10:07:02.786Z,8.70
2019-02-23T10:11:05.789Z,9.30
2019-02-23T10:15:09.705Z,9.10
2019-02-23T10:19:13.803Z,9.30
2019-02-23T10:23:22.136Z,9.80
2019-02-23T10:27:21.853Z,9.80
2019-02-23T10:31:24.879Z,10.10
2019-02-23T10:35:28.245Z,9.40
2019-02-23T10:39:31.327Z,9.90
2019-02-23T10:43:34.328Z,9.10
2019-02-23T10:47:37.398Z,9.00
2019-02-23T10:51:40.444Z,8.20
2019-02-23T10:55:44.936Z,8.60
2019-02-23T10:59:47.932Z,8.70
2019-02-23T11:03:51.015Z,9.60
2019-02-23T11:07:54.032Z,9.80
2019-02-23T11:11:57.339Z,9.40
2019-02-23T11:16:00.360Z,9.40
2019-02-23T11:20:06.269Z,9.50
2019-02-23T11:24:09.267Z,9.80
2019-02-23T11:28:12.383Z,9.80
2019-02-23T11:32:33.297Z,10.10
2019-02-23T11:36:41.176Z,10.20
2019-02-23T11:40:48.899Z,9.80
2019-02-23T11:44:57.243Z,12.40
2019-02-23T11:49:04.898Z,11.50
2019-02-23T11:53:13.778Z,11.10
2019-02-23T11:57:29.976Z,11.10
2019-02-23T12:01:34.019Z,11.00
2019-02-23T12:05:40.731Z,11.40
2019-02-23T12:09:48.977Z,11.40
2019-02-23T12:13:53.236Z,11.40
2019-02-23T12:18:00.536Z,11.10
2019-02-23T12:22:16.965Z,11.20
2019-02-23T12:26:28.626Z,10.80
2019-02-23T12:30:35.780Z,10.40
2019-02-23T12:34:46.755Z,10.10
2019-02-23T12:38:53.800Z,10.10
2019-02-23T12:43:01.459Z,10.50
2019-02-23T12:47:19.673Z,10.80
2019-02-23T12:51:26.340Z,10.80
2019-02-23T12:55:40.681Z,10.90
2019-02-23T12:59:49.919Z,11.00
2019-02-23T13:04:00.311Z,11.10
2019-02-23T13:08:38.948Z,11.50
2019-02-23T13:13:15.439Z,11.30
2019-02-23T13:18:14.081Z,11.40
2019-02-23T13:22:16.383Z,11.60
2019-02-23T13:26:31.661Z,11.90
2019-02-23T13:30:44.031Z,11.90
2019-02-23T13:34:53.355Z,11.60
2019-02-23T13:39:11.881Z,11.30
2019-02-23T13:43:30.250Z,11.00
2019-02-23T13:47:42.874Z,11.10
2019-02-23T13:51:52.666Z,11.20
2019-02-23T13:56:23.687Z,11.60
2019-02-23T14:00:54.937Z,11.00
2019-02-23T14:05:23.312Z,10.60
2019-02-23T14:09:46.412Z,10.70
2019-02-23T14:14:11.621Z,10.50
2019-02-23T14:18:40.915Z,10.50
2019-02-23T14:23:10.504Z,10.60
2019-02-23T14:27:29.114Z,10.80
2019-02-23T14:31:54.064Z,11.00
2019-02-23T14:36:01.301Z,11.10
2019-02-23T14:40:27.919Z,10.90
2019-02-23T14:44:57.754Z,10.90
2019-02-23T14:49:04.906Z,10.90
2019-02-23T14:53:33.071Z,11.00
2019-02-23T14:58:02.621Z,11.10
2019-02-23T15:02:27.712Z,10.60
2019-02-23T15:06:37.279Z,10.20
2019-02-23T15:11:11.257Z,10.00
2019-02-23T15:15:21.043Z,10.00
2019-02-23T15:19:50.315Z,10.10
2019-02-23T15:24:15.107Z,10.10
2019-02-23T15:28:41.969Z,10.30
2019-02-23T15:33:12.751Z,10.20
2019-02-23T15:37:46.631Z,10.10
2019-02-23T15:42:19.404Z,10.20
2019-02-23T15:46:26.210Z,10.20
2019-02-23T15:50:29.226Z,10.20
2019-02-23T15:54:32.312Z,10.30
2019-02-23T15:58:35.359Z,10.10
2019-02-23T16:02:42.819Z,10.20
2019-02-23T16:06:45.897Z,10.10
2019-02-23T16:10:49.139Z,10.00
2019-02-23T16:14:54.134Z,9.80
2019-02-23T16:18:58.870Z,9.90
2019-02-23T16:23:03.746Z,9.70
2019-02-23T16:27:10.934Z,9.50
2019-02-23T16:31:15.965Z,9.40
2019-02-23T16:35:22.426Z,9.50
2019-02-23T16:39:28.284Z,9.30
2019-02-23T16:43:35.167Z,9.10
2019-02-23T16:47:39.235Z,9.30
2019-02-23T16:51:44.486Z,9.30
2019-02-23T16:55:53.629Z,9.70
2019-02-23T16:59:58.449Z,9.70
2019-02-23T17:04:03.368Z,9.60
2019-02-23T17:08:08.453Z,9.50
2019-02-23T17:12:12.407Z,9.40
2019-02-23T17:16:15.465Z,9.20
2019-02-23T17:20:18.479Z,9.10
2019-02-23T17:24:21.490Z,9.10
2019-02-23T17:28:24.535Z,8.80
2019-02-23T17:32:27.576Z,8.50
2019-02-23T17:36:30.697Z,8.20
2019-02-23T17:40:33.816Z,7.90
2019-02-23T17:44:36.927Z,7.80
2019-02-23T17:48:40.006Z,7.70
2019-02-23T17:52:43.027Z,7.60
2019-02-23T17:56:46.080Z,7.50
2019-02-23T18:00:49.123Z,7.40
2019-02-23T18:04:53.071Z,7.30
2019-02-23T18:08:56.288Z,7.20
2019-02-23T18:12:59.328Z,7.30
2019-02-23T18:17:02.316Z,7.30
2019-02-23T18:21:05.323Z,7.40
2019-02-23T18:25:08.335Z,7.40
2019-02-23T18:29:11.376Z,7.40
2019-02-23T18:33:14.416Z,7.50
2019-02-23T18:37:18.437Z,7.40
2019-02-23T18:41:21.531Z,7.50
2019-02-23T18:45:24.684Z,7.20
2019-02-23T18:49:27.702Z,7.00
2019-02-23T18:53:30.696Z,9.10
2019-02-23T18:57:33.734Z,10.80
2019-02-23T19:01:36.848Z,11.00
2019-02-23T19:05:40.094Z,10.10
2019-02-23T19:09:44.035Z,8.70
2019-02-23T19:13:47.030Z,7.90
2019-02-23T19:17:50.026Z,7.30
2019-02-23T19:21:53.070Z,7.00
2019-02-23T19:25:56.098Z,7.10
2019-02-23T19:29:59.107Z,7.30
2019-02-23T19:34:02.126Z,7.20
2019-02-23T19:38:05.122Z,7.10
2019-02-23T19:42:08.123Z,7.10
2019-02-23T19:46:11.106Z,7.20
2019-02-23T19:50:23.193Z,7.10
2019-02-23T19:54:26.199Z,7.00
2019-02-23T19:58:29.210Z,7.00
2019-02-23T20:02:32.671Z,7.30
2019-02-23T20:06:36.647Z,7.40
2019-02-23T20:10:39.749Z,7.30
2019-02-23T20:14:42.779Z,7.40
2019-02-23T20:18:45.766Z,7.30
2019-02-23T20:22:48.752Z,7.20
2019-02-23T20:26:55.567Z,7.10
2019-02-23T20:30:56.649Z,7.00
2019-02-23T20:34:59.638Z,7.00
2019-02-23T20:39:03.280Z,6.90
2019-02-23T20:43:06.291Z,6.80
2019-02-23T20:47:09.291Z,6.60
2019-02-23T20:51:12.374Z,6.60
2019-02-23T20:55:15.378Z,6.70
2019-02-23T20:59:18.371Z,6.70
2019-02-23T21:03:21.379Z,6.70
2019-02-23T21:07:24.828Z,6.50
2019-02-23T21:11:28.865Z,6.20
2019-02-23T21:15:31.859Z,6.10
2019-02-23T21:19:34.864Z,6.10
2019-02-23T21:23:37.886Z,6.20
2019-02-23T21:27:40.889Z,6.40
2019-02-23T21:31:43.897Z,6.40
2019-02-23T21:35:46.903Z,6.40
2019-02-23T21:39:49.890Z,6.40
2019-02-23T21:43:52.891Z,6.30
2019-02-23T21:47:55.882Z,6.20
2019-02-23T21:51:58.888Z,6.10
2019-02-23T21:56:01.882Z,6.00
2019-02-23T22:00:07.385Z,6.00
2019-02-23T22:04:10.385Z,5.90
2019-02-23T22:08:13.547Z,5.90
2019-02-23T22:12:17.118Z,5.80
2019-02-23T22:16:20.192Z,5.60
2019-02-23T22:20:23.541Z,5.60
2019-02-23T22:24:26.550Z,5.70
2019-02-23T22:28:29.559Z,5.70
2019-02-23T22:32:32.566Z,5.70
2019-02-23T22:36:35.565Z,5.60
2019-02-23T22:40:38.608Z,5.70
2019-02-23T22:44:41.680Z,5.60
2019-02-23T22:48:44.655Z,5.70
2019-02-23T22:52:47.657Z,5.30
2019-02-23T22:56:50.646Z,5.20
2019-02-23T23:00:55.590Z,5.20
2019-02-23T23:04:58.585Z,5.20
2019-02-23T23:09:03.529Z,5.10
2019-02-23T23:13:07.350Z,5.10
2019-02-23T23:17:10.343Z,5.10
2019-02-23T23:21:13.338Z,5.10
2019-02-23T23:25:16.414Z,5.00
2019-02-23T23:29:19.456Z,5.10
2019-02-23T23:33:22.467Z,5.20
2019-02-23T23:37:25.469Z,5.10
2019-02-23T23:41:28.475Z,5.20
2019-02-23T23:45:31.764Z,5.20
2019-02-23T23:49:34.753Z,5.20
2019-02-23T23:53:37.747Z,5.30
2019-02-23T23:57:40.743Z,5.30
